Flight Track Log - Related Links

Times and Time Zones

All times are in EDT time to prevent confusion due to time zone crossing. See the UAL4498 flight status page for this flight to view local times or setup timezone preferences in your user account.

Time Position Orientation Groundspeed Altitude Reporting Facility
EDT Latitude Longitude Course Direction KTS MPH feet Rate Location/Type
Mon 07:59:34 PM 36.0167 -79.8781 58° Northeast 126 145 7,100  Level Washington Center
Mon 08:00:00 PM 36.2026 -79.6825 52° Northeast  Level FlightAware Approximate
Mon 08:00:35 PM 36.0956 -79.8308 26° Northeast 185 213 9,300  Level Washington Center
Mon 08:01:00 PM 36.2527 -79.5898 61° Northeast  Level FlightAware Approximate
Mon 08:01:35 PM 36.1672 -79.7550 40° Northeast 281 323 10,900  Level Washington Center
Mon 08:02:00 PM 36.2962 -79.4918 61° Northeast  Level FlightAware Approximate
Mon 08:02:36 PM 36.2267 -79.6578 53° Northeast 354 407 12,000  Level Washington Center
Mon 08:03:00 PM 36.3517 -79.4200 47° Northeast  Level FlightAware Approximate
Mon 08:03:34 PM 36.2978 -79.5300 55° Northeast 407 468 13,300  Level Washington Center
Mon 08:04:00 PM 36.3975 -79.3383 58° Northeast  Level FlightAware Approximate
Mon 08:04:35 PM 36.3597 -79.4197 55° Northeast 423 487 14,700  Level Washington Center
Mon 08:05:36 PM 36.4453 -79.2922 50° Northeast 434 499 16,300 1,488 Climbing Washington Center
Mon 08:06:36 PM 36.5319 -79.1875 44° Northeast 434 499 17,700 1,525 Climbing Washington Center
Mon 08:07:34 PM 36.6206 -79.0831 43° Northeast 434 499 19,300 1,513 Climbing Washington Center
Mon 08:08:35 PM 36.6964 -78.9853 46° Northeast 436 502 20,700 1,475 Climbing Washington Center
Mon 08:09:36 PM 36.7786 -78.8750 47° Northeast 436 502 22,300 1,160 Climbing Washington Center
Mon 08:10:34 PM 36.8825 -78.8194 23° Northeast 412 474 23,000 353 Climbing Washington Center
Mon 08:11:35 PM 37.0039 -78.8064 North 389 448 23,000  Level Washington Center
Mon 08:12:36 PM 37.1108 -78.7875 North 384 442 23,000  Level Washington Center
Mon 08:13:34 PM 37.2175 -78.7736 North 384 442 23,000  Level Washington Center
Mon 08:14:34 PM 37.3181 -78.7569 North 389 448 23,000  Level Washington Center
Mon 08:15:35 PM 37.4292 -78.7406 North 394 453 23,000  Level Washington Center
Mon 08:16:35 PM 37.5464 -78.7244 North 405 466 23,000 -496 Level Washington Center
Mon 08:17:36 PM 37.6803 -78.7064 North 432 497 22,000 -958 Descending Washington Center
Mon 08:18:34 PM 37.7994 -78.6903 North 432 497 21,100 -750 Descending Washington Center
Mon 08:19:36 PM 37.9169 -78.6714 North 432 497 20,500 -1,100 Descending Washington Center
Mon 08:20:34 PM 38.0317 -78.6631 North 422 486 18,900 -1,714 Descending Washington Center
Mon 08:21:35 PM 38.1294 -78.6803 352° North 398 458 17,100 -1,765 Descending Washington Center
Mon 08:22:33 PM 38.2372 -78.7006 352° North 393 452 15,400 -1,714 Descending Washington Center
Mon 08:23:34 PM 38.3369 -78.7181 352° North 379 436 13,700 -1,131 Descending Washington Center
Mon 08:24:35 PM 38.4361 -78.6769 18° North 360 414 13,100 -295 Descending Washington Center
Mon 08:25:36 PM 38.5194 -78.5956 37° Northeast 353 406 13,100 -504 Level Washington Center
Mon 08:26:34 PM 38.6006 -78.5139 38° Northeast 359 413 12,100 -1,000 Descending Washington Center
Mon 08:27:36 PM 38.6819 -78.4294 39° Northeast 364 419 11,100 -600 Descending Washington Center
Mon 08:28:34 PM 38.7503 -78.3522 41° Northeast 353 406 10,900 -712 Descending Washington Center
Mon 08:29:34 PM 38.8128 -78.2639 48° Northeast 329 379 9,700 -1,091 Descending Washington Center
Mon 08:30:35 PM 38.8672 -78.1644 55° Northeast 318 366 8,700 -1,311 Descending Washington Center
Mon 08:31:33 PM 38.8922 -78.0586 73° East 297 342 7,100 -1,210 Descending Washington Center
Mon 08:32:34 PM 38.9172 -77.9556 73° East 297 342 6,300 -541 Descending Washington Center
Mon 08:33:35 PM 38.9442 -77.8522 71° East 297 342 6,000 -148 Descending Washington Center
Mon 08:34:36 PM 38.9647 -77.7594 74° East 302 348 6,000  Level Washington Center
Mon 08:35:36 PM 38.9606 -77.6444 93° East 291 335 6,000  Level Washington Center
Mon 08:36:41 PM 39.0333 -77.5667 40° Northeast 267 307 6,000 -288 Level Potomac TRACON
Mon 08:37:41 PM 39.1000 -77.5667 360° North 240 276 5,400 -1,000 Descending Potomac TRACON
Mon 08:38:41 PM 39.1333 -77.5333 38° Northeast 250 288 4,000 -1,100 Descending Potomac TRACON
Mon 08:39:41 PM 39.1167 -77.4667 108° East 210 242 3,200 -1,000 Descending Potomac TRACON
Mon 08:40:41 PM 39.0667 -77.4500 165° South 193 222 2,000 -1,000 Descending Potomac TRACON
Mon 08:41:41 PM 39.0167 -77.4667 195° South 140 161 1,200 -800 Descending Potomac TRACON

Login

Don't have an account? Register now (free) for customized features, flight alerts, and more!